createdAt,value
2022-08-12T00:02:03.610Z,3.20
2022-08-12T00:04:19.278Z,3.13
2022-08-12T00:06:33.272Z,3.00
2022-08-12T00:08:47.708Z,3.40
2022-08-12T00:11:12.387Z,3.23
2022-08-12T00:13:26.784Z,3.63
2022-08-12T00:15:40.384Z,3.10
2022-08-12T00:17:54.390Z,3.37
2022-08-12T00:20:08.057Z,3.33
2022-08-12T00:22:21.662Z,3.60
2022-08-12T00:24:35.774Z,3.60
2022-08-12T00:26:50.987Z,3.40
2022-08-12T00:29:05.356Z,3.60
2022-08-12T00:31:19.713Z,3.30
2022-08-12T00:33:35.745Z,2.83
2022-08-12T00:36:04.547Z,3.70
2022-08-12T00:38:18.598Z,3.63
2022-08-12T00:40:32.229Z,3.57
2022-08-12T00:42:38.307Z,3.60
2022-08-12T00:44:42.303Z,3.40
2022-08-12T00:46:47.410Z,3.70
2022-08-12T00:48:50.291Z,3.50
2022-08-12T00:50:53.208Z,3.97
2022-08-12T00:52:55.848Z,3.33
2022-08-12T00:55:00.113Z,3.70
2022-08-12T00:57:05.502Z,4.10
2022-08-12T00:59:09.711Z,3.47
2022-08-12T01:01:12.435Z,3.60
2022-08-12T01:03:15.605Z,3.57
2022-08-12T01:05:30.179Z,2.93
2022-08-12T01:07:44.081Z,3.50
2022-08-12T01:09:58.965Z,3.47
2022-08-12T01:12:01.605Z,3.67
2022-08-12T01:14:05.101Z,3.23
2022-08-12T01:16:10.628Z,3.50
2022-08-12T01:18:13.376Z,3.00
2022-08-12T01:20:21.992Z,3.40
2022-08-12T01:22:26.085Z,3.97
2022-08-12T01:24:45.078Z,3.83
2022-08-12T01:26:48.069Z,3.70
2022-08-12T01:28:58.625Z,4.10
2022-08-12T01:31:03.913Z,3.80
2022-08-12T01:33:06.598Z,3.67
2022-08-12T01:35:10.404Z,3.33
2022-08-12T01:37:14.129Z,3.20
2022-08-12T01:39:17.628Z,3.60
2022-08-12T01:41:21.636Z,3.50
2022-08-12T01:43:24.695Z,3.87
2022-08-12T01:45:29.516Z,3.37
2022-08-12T01:47:55.857Z,3.10
2022-08-12T01:50:07.797Z,3.87
2022-08-12T01:52:21.440Z,3.80
2022-08-12T01:54:25.998Z,3.27
2022-08-12T01:56:29.999Z,3.93
2022-08-12T01:58:53.870Z,3.60
2022-08-12T02:00:59.617Z,3.90
2022-08-12T02:03:04.350Z,3.70
2022-08-12T02:05:25.508Z,3.70
2022-08-12T02:07:48.433Z,3.60
2022-08-12T02:10:07.630Z,3.10
2022-08-12T02:12:21.696Z,3.70
2022-08-12T02:14:43.193Z,3.60
2022-08-12T02:17:00.099Z,3.70
2022-08-12T02:19:22.293Z,3.70
2022-08-12T02:21:34.149Z,3.47
2022-08-12T02:23:36.789Z,3.87
2022-08-12T02:25:40.189Z,3.40
2022-08-12T02:27:45.616Z,2.90
2022-08-12T02:29:49.191Z,3.70
2022-08-12T02:31:52.953Z,3.20
2022-08-12T02:33:55.608Z,3.30
2022-08-12T02:35:58.751Z,3.57
2022-08-12T02:38:02.452Z,3.40
2022-08-12T02:40:05.809Z,3.40
2022-08-12T02:42:14.837Z,3.00
2022-08-12T02:44:19.118Z,3.60
2022-08-12T02:46:25.545Z,3.27
2022-08-12T02:48:30.744Z,3.17
2022-08-12T02:50:34.772Z,3.60
2022-08-12T02:52:37.882Z,3.47
2022-08-12T02:54:40.887Z,3.60
2022-08-12T02:56:50.134Z,4.00
2022-08-12T02:58:54.226Z,3.97
2022-08-12T03:01:01.243Z,3.50
2022-08-12T03:03:06.370Z,3.20
2022-08-12T03:05:11.647Z,3.73
2022-08-12T03:07:17.252Z,3.67
2022-08-12T03:09:19.919Z,4.13
2022-08-12T03:11:24.564Z,3.93
2022-08-12T03:13:27.358Z,3.60
2022-08-12T03:15:31.221Z,3.63
2022-08-12T03:17:39.996Z,3.80
2022-08-12T03:20:10.538Z,3.27
2022-08-12T03:22:13.115Z,4.00
2022-08-12T03:24:18.412Z,3.40
2022-08-12T03:26:24.549Z,3.60
2022-08-12T03:28:41.175Z,3.10
2022-08-12T03:30:43.849Z,3.63
2022-08-12T03:32:49.498Z,3.30
2022-08-12T03:34:54.715Z,3.60
2022-08-12T03:36:58.511Z,3.10
2022-08-12T03:39:16.706Z,3.50
2022-08-12T03:41:33.908Z,3.37
2022-08-12T03:43:50.891Z,3.47
2022-08-12T03:46:05.744Z,3.10
2022-08-12T03:48:23.468Z,3.20
2022-08-12T03:50:37.098Z,3.10
2022-08-12T03:52:51.046Z,2.80
2022-08-12T03:55:04.681Z,3.10
2022-08-12T03:57:18.287Z,3.53
2022-08-12T03:59:32.267Z,4.23
2022-08-12T04:01:40.651Z,3.83
2022-08-12T04:03:54.120Z,3.80
2022-08-12T04:05:57.004Z,3.37
2022-08-12T04:08:00.152Z,3.70
2022-08-12T04:10:02.738Z,3.90
2022-08-12T04:12:17.410Z,3.90
2022-08-12T04:14:19.757Z,3.90
2022-08-12T04:16:22.395Z,4.23
2022-08-12T04:18:25.077Z,4.40
2022-08-12T04:20:29.046Z,3.73
2022-08-12T04:22:31.782Z,3.60
2022-08-12T04:24:36.058Z,3.37
2022-08-12T04:26:40.845Z,4.03
2022-08-12T04:28:44.636Z,4.37
2022-08-12T04:30:47.269Z,3.77
2022-08-12T04:32:50.728Z,4.00
2022-08-12T04:34:53.924Z,3.43
2022-08-12T04:36:57.849Z,3.57
2022-08-12T04:39:00.975Z,4.27
2022-08-12T04:41:03.657Z,4.17
2022-08-12T04:43:06.984Z,3.87
2022-08-12T04:45:30.082Z,3.77
2022-08-12T04:47:32.757Z,3.80
2022-08-12T04:49:35.526Z,4.10
2022-08-12T04:51:38.704Z,3.63
2022-08-12T04:53:43.364Z,4.10
2022-08-12T04:55:47.887Z,3.50
2022-08-12T04:57:50.592Z,3.87
2022-08-12T04:59:53.909Z,4.17
2022-08-12T05:01:57.705Z,3.70
2022-08-12T05:04:01.356Z,3.97
2022-08-12T05:06:04.675Z,3.80
2022-08-12T05:08:11.830Z,3.90
2022-08-12T05:10:15.934Z,3.53
2022-08-12T05:12:19.706Z,4.10
2022-08-12T05:14:23.941Z,4.30
2022-08-12T05:16:32.413Z,4.90
2022-08-12T05:18:39.362Z,3.97
2022-08-12T05:20:43.404Z,3.63
2022-08-12T05:22:46.252Z,3.90
2022-08-12T05:24:49.096Z,4.30
2022-08-12T05:26:53.374Z,4.13
2022-08-12T05:28:56.470Z,4.03
2022-08-12T05:31:01.779Z,4.10
2022-08-12T05:33:05.679Z,4.30
2022-08-12T05:35:08.830Z,3.80
2022-08-12T05:37:11.464Z,4.10
2022-08-12T05:39:13.420Z,4.27
2022-08-12T05:41:20.428Z,4.13
2022-08-12T05:43:24.754Z,4.70
2022-08-12T05:45:27.416Z,3.80
2022-08-12T05:47:52.669Z,4.00
2022-08-12T05:49:53.541Z,3.70
2022-08-12T05:51:57.311Z,3.80
2022-08-12T05:54:00.105Z,4.37
2022-08-12T05:56:03.123Z,3.90
2022-08-12T05:58:07.644Z,4.10
2022-08-12T06:00:12.309Z,3.87
2022-08-12T06:02:15.246Z,4.13
2022-08-12T06:04:17.924Z,4.70
2022-08-12T06:06:22.382Z,5.13
2022-08-12T06:08:25.832Z,4.13
2022-08-12T06:10:32.545Z,5.03
2022-08-12T06:12:35.721Z,3.97
2022-08-12T06:14:38.984Z,4.90
2022-08-12T06:16:44.194Z,4.87
2022-08-12T06:18:47.372Z,9.37
2022-08-12T06:20:50.083Z,4.57
2022-08-12T06:22:56.490Z,4.90
2022-08-12T06:25:00.429Z,4.87
2022-08-12T06:27:03.541Z,9.90
2022-08-12T06:29:06.214Z,4.40
2022-08-12T06:31:25.247Z,4.27
2022-08-12T06:33:55.089Z,5.80
2022-08-12T06:35:57.277Z,5.10
2022-08-12T06:38:00.574Z,5.27
2022-08-12T06:40:04.253Z,6.30
2022-08-12T06:42:31.379Z,8.10
2022-08-12T06:44:41.403Z,5.37
2022-08-12T06:46:45.415Z,4.60
2022-08-12T06:48:49.873Z,6.07
2022-08-12T06:50:52.948Z,4.20
2022-08-12T06:52:55.932Z,5.60
2022-08-12T06:54:59.838Z,4.03
2022-08-12T06:57:04.872Z,4.97
2022-08-12T06:59:26.318Z,5.50
2022-08-12T07:01:31.206Z,5.23
2022-08-12T07:03:34.220Z,5.33
2022-08-12T07:05:42.200Z,4.83
2022-08-12T07:07:47.844Z,3.90
2022-08-12T07:10:06.705Z,12.70
2022-08-12T07:12:16.364Z,5.30
2022-08-12T07:14:19.556Z,7.10
2022-08-12T07:16:22.467Z,6.13
2022-08-12T07:18:32.561Z,4.93
2022-08-12T07:20:51.848Z,5.40
2022-08-12T07:23:00.114Z,5.10
2022-08-12T07:25:16.800Z,4.63
2022-08-12T07:27:23.163Z,4.67
2022-08-12T07:30:04.321Z,5.73
2022-08-12T07:31:51.347Z,4.77
2022-08-12T07:33:56.446Z,4.90
2022-08-12T07:36:02.245Z,4.73
2022-08-12T07:38:29.162Z,4.03
2022-08-12T07:40:35.899Z,4.13
2022-08-12T07:42:41.189Z,3.90
2022-08-12T07:44:44.360Z,3.93
2022-08-12T07:46:48.001Z,3.90
2022-08-12T07:48:56.878Z,4.17
2022-08-12T07:51:00.382Z,3.10
2022-08-12T07:53:03.832Z,3.10
2022-08-12T07:55:10.984Z,3.97
2022-08-12T07:57:15.166Z,3.50
2022-08-12T07:59:18.903Z,3.97
2022-08-12T08:01:22.744Z,3.30
2022-08-12T08:03:25.719Z,3.67
2022-08-12T08:05:30.947Z,3.07
2022-08-12T08:07:33.647Z,3.13
2022-08-12T08:09:36.546Z,3.40
2022-08-12T08:11:51.988Z,2.63
2022-08-12T08:13:54.665Z,2.90
2022-08-12T08:16:04.587Z,2.97
2022-08-12T08:18:08.345Z,2.97
2022-08-12T08:20:11.604Z,3.33
2022-08-12T08:22:14.241Z,3.40
2022-08-12T08:24:16.954Z,3.07
2022-08-12T08:26:22.511Z,3.23
2022-08-12T08:28:26.466Z,2.73
2022-08-12T08:30:30.064Z,3.20
2022-08-12T08:32:32.858Z,2.80
2022-08-12T08:34:53.919Z,3.17
2022-08-12T08:36:57.768Z,2.93
2022-08-12T08:39:00.429Z,2.40
2022-08-12T08:41:14.691Z,2.30
2022-08-12T08:43:44.313Z,2.60
2022-08-12T08:45:48.234Z,1.77
2022-08-12T08:47:51.668Z,2.33
2022-08-12T08:50:00.795Z,2.50
2022-08-12T08:52:03.751Z,2.10
2022-08-12T08:54:08.968Z,2.30
2022-08-12T08:56:12.022Z,2.50
2022-08-12T08:58:16.210Z,2.10
2022-08-12T09:00:21.453Z,1.87
2022-08-12T09:02:24.121Z,2.10
2022-08-12T09:05:13.954Z,1.80
2022-08-12T09:06:53.480Z,2.67
2022-08-12T09:08:56.809Z,1.77
2022-08-12T09:14:10.479Z,2.00
2022-08-12T09:16:07.987Z,1.63
2022-08-12T09:18:12.060Z,1.83
2022-08-12T09:20:16.950Z,2.23
2022-08-12T09:22:21.042Z,1.90
2022-08-12T09:24:27.896Z,2.00
2022-08-12T09:26:38.023Z,1.90
2022-08-12T09:28:41.855Z,1.70
2022-08-12T09:30:47.201Z,1.83
2022-08-12T09:33:04.041Z,1.90
2022-08-12T09:35:22.470Z,2.00
2022-08-12T09:37:57.607Z,2.10
2022-08-12T09:40:03.159Z,1.93
2022-08-12T09:42:39.036Z,1.80
2022-08-12T09:45:18.230Z,1.60
2022-08-12T09:47:28.948Z,2.27
2022-08-12T09:49:38.536Z,2.10
2022-08-12T09:51:47.480Z,1.50
2022-08-12T09:54:09.178Z,1.30
2022-08-12T09:56:58.967Z,1.00
2022-08-12T09:58:58.113Z,1.20
2022-08-12T10:01:15.149Z,1.20
2022-08-12T10:03:31.767Z,1.13
2022-08-12T10:06:19.772Z,1.40
2022-08-12T10:08:05.595Z,1.70
2022-08-12T10:10:24.847Z,1.13
2022-08-12T10:12:39.121Z,1.10
2022-08-12T10:14:49.830Z,1.17
2022-08-12T10:16:55.040Z,1.13
2022-08-12T10:18:59.754Z,1.20
2022-08-12T10:21:06.640Z,1.77
2022-08-12T10:23:12.644Z,1.60
2022-08-12T10:26:35.789Z,1.50
2022-08-12T10:28:08.224Z,1.40
2022-08-12T10:30:39.913Z,1.50
2022-08-12T10:32:45.239Z,1.20
2022-08-12T10:34:53.410Z,1.10
2022-08-12T10:37:23.382Z,1.70
2022-08-12T10:40:00.985Z,1.13
2022-08-12T10:42:07.220Z,0.90
2022-08-12T10:44:16.882Z,1.20
2022-08-12T10:46:21.295Z,1.43
2022-08-12T10:48:33.934Z,1.23
2022-08-12T10:51:02.246Z,1.20
2022-08-12T10:53:01.573Z,1.30
2022-08-12T10:55:06.758Z,1.50
2022-08-12T10:57:18.323Z,1.43
2022-08-12T11:00:36.046Z,1.27
2022-08-12T11:04:25.740Z,1.67
2022-08-12T11:04:45.608Z,0.97
2022-08-12T11:07:08.852Z,1.40
2022-08-12T11:09:12.953Z,1.20
2022-08-12T11:12:35.539Z,1.13
2022-08-12T11:13:47.415Z,1.30
2022-08-12T11:16:19.635Z,1.67
2022-08-12T11:18:18.332Z,0.87
2022-08-12T11:20:24.561Z,1.30
2022-08-12T11:22:32.352Z,1.23
2022-08-12T11:24:36.521Z,1.17
2022-08-12T11:26:39.202Z,1.00
2022-08-12T11:28:42.231Z,1.40
2022-08-12T11:31:01.786Z,1.60
2022-08-12T11:33:11.824Z,1.00
2022-08-12T11:35:15.032Z,1.27
2022-08-12T11:37:26.130Z,1.23
2022-08-12T11:40:03.596Z,1.40
2022-08-12T11:41:54.092Z,1.10
2022-08-12T11:43:58.305Z,1.10
2022-08-12T11:46:02.075Z,1.40
2022-08-12T11:48:05.149Z,1.40
2022-08-12T11:50:11.607Z,1.10
2022-08-12T11:52:55.042Z,1.47
2022-08-12T11:54:51.024Z,1.00
2022-08-12T11:56:59.854Z,1.30
2022-08-12T12:02:01.073Z,1.00
2022-08-12T12:02:03.035Z,1.20
2022-08-12T12:03:48.799Z,1.23
2022-08-12T12:05:51.923Z,1.33
2022-08-12T12:08:39.006Z,1.30
2022-08-12T12:10:19.415Z,1.20
2022-08-12T12:12:25.258Z,1.10
2022-08-12T12:14:40.049Z,1.20
2022-08-12T12:16:48.262Z,1.33
2022-08-12T12:18:53.511Z,1.00
2022-08-12T12:20:58.579Z,1.00
2022-08-12T12:23:01.979Z,1.10
2022-08-12T12:25:12.780Z,1.20
2022-08-12T12:27:19.375Z,1.20
2022-08-12T12:30:18.622Z,0.97
2022-08-12T12:32:10.140Z,1.10
2022-08-12T12:34:08.816Z,0.97
2022-08-12T12:36:22.089Z,1.17
2022-08-12T12:38:26.249Z,0.97
2022-08-12T12:40:30.153Z,1.20
2022-08-12T12:42:43.006Z,1.10
2022-08-12T12:44:56.565Z,0.80
2022-08-12T12:46:59.781Z,1.33
2022-08-12T12:49:06.745Z,1.10
2022-08-12T12:51:48.806Z,0.80
2022-08-12T12:54:07.873Z,1.03
2022-08-12T12:56:03.486Z,1.00
2022-08-12T12:58:09.471Z,2.27
2022-08-12T13:00:17.938Z,1.10
2022-08-12T13:02:31.651Z,1.13
2022-08-12T13:04:37.225Z,0.90
2022-08-12T13:06:41.924Z,1.20
2022-08-12T13:08:46.852Z,1.07
2022-08-12T13:10:51.254Z,1.30
2022-08-12T13:12:54.793Z,1.20
2022-08-12T13:14:57.857Z,1.10
2022-08-12T13:17:02.796Z,0.97
2022-08-12T13:19:07.704Z,1.27
2022-08-12T13:21:15.737Z,1.50
2022-08-12T13:23:36.984Z,1.10
2022-08-12T13:25:41.916Z,0.97
2022-08-12T13:27:48.964Z,1.20
2022-08-12T13:29:52.297Z,1.20
2022-08-12T13:32:19.397Z,1.10
2022-08-12T13:34:32.214Z,1.00
2022-08-12T13:36:37.186Z,1.10
2022-08-12T13:38:42.699Z,1.37
2022-08-12T13:40:46.670Z,1.40
2022-08-12T13:42:51.106Z,1.20
2022-08-12T13:44:54.393Z,1.10
2022-08-12T13:46:58.798Z,1.20
2022-08-12T13:49:04.827Z,1.10
2022-08-12T13:51:08.878Z,1.00
2022-08-12T13:53:23.961Z,1.00
2022-08-12T13:55:30.951Z,1.10
2022-08-12T13:57:46.938Z,1.10
2022-08-12T13:59:55.122Z,1.30
2022-08-12T14:01:58.543Z,1.10
2022-08-12T14:04:04.413Z,0.90
2022-08-12T14:06:07.238Z,1.40
2022-08-12T14:08:12.111Z,1.00
2022-08-12T14:10:29.279Z,0.87
2022-08-12T14:12:34.175Z,1.23
2022-08-12T14:14:37.300Z,1.10
2022-08-12T14:16:48.470Z,0.97
2022-08-12T14:18:55.068Z,1.00
2022-08-12T14:21:01.638Z,1.20
2022-08-12T14:24:08.012Z,1.23
2022-08-12T14:25:31.122Z,1.20
2022-08-12T14:28:02.853Z,0.90
2022-08-12T14:30:06.067Z,1.10
2022-08-12T14:32:19.535Z,1.10
2022-08-12T14:34:28.251Z,1.47
2022-08-12T14:36:31.484Z,1.00
2022-08-12T14:38:37.681Z,1.40
2022-08-12T14:40:42.523Z,1.03
2022-08-12T14:42:46.970Z,0.90
2022-08-12T14:44:58.121Z,1.07
2022-08-12T14:47:07.663Z,1.17
2022-08-12T14:50:00.857Z,1.00
2022-08-12T14:52:55.783Z,1.00
2022-08-12T14:55:47.250Z,1.00
2022-08-12T14:59:20.579Z,1.00
2022-08-12T15:01:33.696Z,1.07
2022-08-12T15:03:52.274Z,1.37
2022-08-12T15:06:05.580Z,1.00
2022-08-12T15:08:12.479Z,1.20
2022-08-12T15:10:32.496Z,0.90
2022-08-12T15:12:40.547Z,1.40
2022-08-12T15:14:45.814Z,1.33
2022-08-12T15:16:48.637Z,1.37
2022-08-12T15:18:56.444Z,1.20
2022-08-12T15:21:05.531Z,1.13
2022-08-12T15:23:17.985Z,1.47
2022-08-12T15:25:24.673Z,1.13
2022-08-12T15:27:31.818Z,1.20
2022-08-12T15:29:53.471Z,1.20
2022-08-12T15:32:03.643Z,1.60
2022-08-12T15:34:09.611Z,1.03
2022-08-12T15:36:14.464Z,1.10
2022-08-12T15:38:27.389Z,1.20
2022-08-12T15:40:30.859Z,1.37
2022-08-12T15:42:34.162Z,1.23
2022-08-12T15:44:42.719Z,1.37
2022-08-12T15:46:47.445Z,1.17
2022-08-12T15:48:51.486Z,1.10
2022-08-12T15:50:55.279Z,1.10
2022-08-12T15:52:58.498Z,1.10
2022-08-12T15:55:18.093Z,1.40
2022-08-12T15:57:24.434Z,1.10
2022-08-12T15:59:51.707Z,1.00
2022-08-12T16:01:52.966Z,1.27
2022-08-12T16:04:00.409Z,1.27
2022-08-12T16:06:17.057Z,1.30
2022-08-12T16:08:27.270Z,1.10
2022-08-12T16:10:31.171Z,1.03
2022-08-12T16:12:34.232Z,1.03
2022-08-12T16:14:37.524Z,1.23
2022-08-12T16:16:40.685Z,1.20
2022-08-12T16:18:45.714Z,1.10
2022-08-12T16:20:48.447Z,1.37
2022-08-12T16:22:52.046Z,1.03
2022-08-12T16:24:57.046Z,1.07
2022-08-12T16:27:00.710Z,1.03
2022-08-12T16:29:14.525Z,1.00
2022-08-12T16:31:23.155Z,1.10
2022-08-12T16:33:35.642Z,1.20
2022-08-12T16:35:40.469Z,1.20
2022-08-12T16:38:25.641Z,1.10
2022-08-12T16:40:09.962Z,1.20
2022-08-12T16:42:13.319Z,1.00
2022-08-12T16:44:19.516Z,1.30
2022-08-12T16:46:33.334Z,1.10
2022-08-12T16:48:37.715Z,1.43
2022-08-12T16:50:49.076Z,1.30
2022-08-12T16:52:52.725Z,1.13
2022-08-12T16:54:59.195Z,1.97
2022-08-12T16:57:05.755Z,1.43
2022-08-12T16:59:11.989Z,1.33
2022-08-12T17:01:19.898Z,1.43
2022-08-12T17:03:23.935Z,1.53
2022-08-12T17:05:32.730Z,1.60
2022-08-12T17:07:52.095Z,1.33
2022-08-12T17:09:55.646Z,1.30
2022-08-12T17:11:58.832Z,1.43
2022-08-12T17:14:01.488Z,1.30
2022-08-12T17:16:10.680Z,1.40
2022-08-12T17:18:43.461Z,1.40
2022-08-12T17:20:46.617Z,1.40
2022-08-12T17:22:57.378Z,1.50
2022-08-12T17:25:00.657Z,1.33
2022-08-12T17:27:15.740Z,1.60
2022-08-12T17:29:32.163Z,1.50
2022-08-12T17:32:00.171Z,1.37
2022-08-12T17:34:05.607Z,1.60
2022-08-12T17:36:19.347Z,1.73
2022-08-12T17:38:23.272Z,1.20
2022-08-12T17:40:35.974Z,1.87
2022-08-12T17:42:40.515Z,1.80
2022-08-12T17:44:43.532Z,1.50
2022-08-12T17:46:53.857Z,1.40
2022-08-12T17:48:58.006Z,1.63
2022-08-12T17:51:04.750Z,2.20
2022-08-12T17:53:10.069Z,1.83
2022-08-12T17:55:39.896Z,1.80
2022-08-12T17:57:41.719Z,1.70
2022-08-12T17:59:47.604Z,1.60
2022-08-12T18:01:51.828Z,1.30
2022-08-12T18:04:05.655Z,1.50
2022-08-12T18:06:19.222Z,1.97
2022-08-12T18:08:33.630Z,1.50
2022-08-12T18:10:53.082Z,1.70
2022-08-12T18:12:56.671Z,1.67
2022-08-12T18:15:00.416Z,1.70
2022-08-12T18:17:03.057Z,1.50
2022-08-12T18:19:07.432Z,1.43
2022-08-12T18:22:02.395Z,1.70
2022-08-12T18:24:00.942Z,1.43
2022-08-12T18:26:17.796Z,1.97
2022-08-12T18:28:27.511Z,1.80
2022-08-12T18:30:34.247Z,1.50
2022-08-12T18:32:58.943Z,1.70
2022-08-12T18:35:10.871Z,1.83
2022-08-12T18:37:41.083Z,2.03
2022-08-12T18:39:57.361Z,1.70
2022-08-12T18:42:01.678Z,1.80
2022-08-12T18:44:09.747Z,1.80
2022-08-12T18:46:13.379Z,2.10
2022-08-12T18:48:16.919Z,2.00
2022-08-12T18:50:19.583Z,1.80
2022-08-12T18:52:27.014Z,1.87
2022-08-12T18:54:31.079Z,1.60
2022-08-12T18:56:36.846Z,1.60
2022-08-12T18:58:59.302Z,2.80
2022-08-12T19:01:02.953Z,1.63
2022-08-12T19:03:23.457Z,1.90
2022-08-12T19:05:54.525Z,2.13
2022-08-12T19:08:01.719Z,1.60
2022-08-12T19:10:05.473Z,2.47
2022-08-12T19:12:30.249Z,2.13
2022-08-12T19:14:40.473Z,2.10
2022-08-12T19:16:44.031Z,1.70
2022-08-12T19:18:50.385Z,2.20
2022-08-12T19:20:55.817Z,2.20
2022-08-12T19:23:08.208Z,2.30
2022-08-12T19:25:23.800Z,1.80
2022-08-12T19:27:51.086Z,2.53
2022-08-12T19:30:06.528Z,2.00
2022-08-12T19:32:12.534Z,2.30
2022-08-12T19:34:47.084Z,2.50
2022-08-12T19:36:46.769Z,2.50
2022-08-12T19:38:56.481Z,2.67
2022-08-12T19:41:00.117Z,2.30
2022-08-12T19:43:19.142Z,2.13
2022-08-12T19:45:41.964Z,2.33
2022-08-12T19:47:47.017Z,3.13
2022-08-12T19:49:53.260Z,2.30
2022-08-12T19:51:59.433Z,2.10
2022-08-12T19:54:02.553Z,2.43
2022-08-12T19:56:08.538Z,2.30
2022-08-12T19:58:18.155Z,2.80
2022-08-12T20:00:22.514Z,2.93
2022-08-12T20:02:33.027Z,3.27
2022-08-12T20:04:38.556Z,2.37
2022-08-12T20:06:42.497Z,2.87
2022-08-12T20:08:57.351Z,2.40
2022-08-12T20:12:09.294Z,2.30
2022-08-12T20:13:37.382Z,2.50
2022-08-12T20:15:45.035Z,2.30
2022-08-12T20:17:51.348Z,2.40
2022-08-12T20:20:17.132Z,2.80
2022-08-12T20:22:37.135Z,2.80
2022-08-12T20:24:40.392Z,2.50
2022-08-12T20:26:44.370Z,2.50
2022-08-12T20:28:49.365Z,2.10
2022-08-12T20:30:59.933Z,2.60
2022-08-12T20:33:04.317Z,3.57
2022-08-12T20:35:09.890Z,2.50
2022-08-12T20:37:14.533Z,2.03
2022-08-12T20:39:53.341Z,2.40
2022-08-12T20:41:42.057Z,2.20
2022-08-12T20:43:44.758Z,2.40
2022-08-12T20:45:51.079Z,2.23
2022-08-12T20:48:04.733Z,2.90
2022-08-12T20:50:10.057Z,2.77
2022-08-12T20:52:13.796Z,3.30
2022-08-12T20:54:19.614Z,2.60
2022-08-12T20:56:30.946Z,3.50
2022-08-12T20:58:36.386Z,3.27
2022-08-12T21:00:39.063Z,3.17
2022-08-12T21:02:50.140Z,3.53
2022-08-12T21:05:16.092Z,3.40
2022-08-12T21:07:23.461Z,2.70
2022-08-12T21:09:27.180Z,3.87
2022-08-12T21:11:30.431Z,2.60
2022-08-12T21:13:39.210Z,2.73
2022-08-12T21:15:54.566Z,2.40
2022-08-12T21:18:15.788Z,2.80
2022-08-12T21:20:25.089Z,3.60
2022-08-12T21:22:33.272Z,3.07
2022-08-12T21:24:36.312Z,3.00
2022-08-12T21:26:53.288Z,2.67
2022-08-12T21:28:58.162Z,5.00
2022-08-12T21:32:34.165Z,3.10
2022-08-12T21:33:25.080Z,3.20
2022-08-12T21:35:35.889Z,2.87
2022-08-12T21:37:44.030Z,3.10
2022-08-12T21:39:56.769Z,3.53
2022-08-12T21:42:02.332Z,2.83
2022-08-12T21:44:24.323Z,2.53
2022-08-12T21:46:35.676Z,3.23
2022-08-12T21:48:39.900Z,2.73
2022-08-12T21:50:43.523Z,3.10
2022-08-12T21:52:49.119Z,2.90
2022-08-12T21:54:56.446Z,3.10
2022-08-12T21:57:02.220Z,3.30
2022-08-12T21:59:07.350Z,3.40
2022-08-12T22:01:22.730Z,3.00
2022-08-12T22:04:11.389Z,3.33
2022-08-12T22:06:13.977Z,3.30
2022-08-12T22:08:32.389Z,2.27
2022-08-12T22:10:35.124Z,2.83
2022-08-12T22:12:38.859Z,2.80
2022-08-12T22:14:41.537Z,3.23
2022-08-12T22:16:50.062Z,3.13
2022-08-12T22:18:52.929Z,3.10
2022-08-12T22:20:55.912Z,3.20
2022-08-12T22:22:59.572Z,2.80
2022-08-12T22:25:03.561Z,2.80
2022-08-12T22:27:14.485Z,3.30
2022-08-12T22:29:41.404Z,3.10
2022-08-12T22:31:43.454Z,3.33
2022-08-12T22:33:54.244Z,3.03
2022-08-12T22:36:03.398Z,3.00
2022-08-12T22:38:11.104Z,3.20
2022-08-12T22:40:15.188Z,3.30
2022-08-12T22:42:32.429Z,3.03
2022-08-12T22:44:54.958Z,3.93
2022-08-12T22:47:09.000Z,3.60
2022-08-12T22:49:11.671Z,3.77
2022-08-12T22:51:22.163Z,3.67
2022-08-12T22:53:36.208Z,3.13
2022-08-12T22:55:59.034Z,3.87
2022-08-12T22:58:03.402Z,4.03
2022-08-12T23:00:23.399Z,3.40
2022-08-12T23:02:30.632Z,3.50
2022-08-12T23:04:34.592Z,3.10
2022-08-12T23:06:38.371Z,2.70
2022-08-12T23:08:43.389Z,3.27
2022-08-12T23:10:47.410Z,3.23
2022-08-12T23:13:04.362Z,3.20
2022-08-12T23:15:08.864Z,2.80
2022-08-12T23:17:35.250Z,4.53
2022-08-12T23:19:38.432Z,3.50
2022-08-12T23:22:05.499Z,3.60
2022-08-12T23:24:17.099Z,3.13
2022-08-12T23:26:42.202Z,3.27
2022-08-12T23:28:56.446Z,3.03
2022-08-12T23:31:04.166Z,3.23
2022-08-12T23:33:13.040Z,3.00
2022-08-12T23:35:23.735Z,3.40
2022-08-12T23:37:53.819Z,3.40
2022-08-12T23:40:13.605Z,2.80
2022-08-12T23:42:21.040Z,3.23
2022-08-12T23:44:35.891Z,3.20
2022-08-12T23:46:39.449Z,3.10
2022-08-12T23:48:47.925Z,3.20
2022-08-12T23:50:57.902Z,3.60
2022-08-12T23:53:02.523Z,3.10
2022-08-12T23:55:24.984Z,3.60
2022-08-12T23:58:18.051Z,2.70
2022-08-12T23:59:55.849Z,3.30
